Zim Mumbai — P3BA7 — position and weather

sailwx.info

Track history (hours):
 
Tides and Currents Weather Stations Pressure Air Temp Water Temp Dewpoint Dewpoint Depression Visibility Wind Speed Wind Dir Waves Ship Positions

Zim Mumbai

Last reported at 2016-May-23 02:07 UTC. Time now 2016-May-24 06:06 UTC.
Position N 36°49' W 075°46'.

Length 195.7 m; beam 32.3 m; draft 11.5 m.

Type: Ship (hazmat cat B). MMSI: 212160000.

Date/timePositionNaut miles runAvg speedWind from/ knotsBaromVisibWave heightAir tempDewpointWater temp
2016-May-23 02:07N 36°49' W 075°46'813.3
2016-May-23 01:33N 36°53' W 075°54'1211.7
2016-May-23 00:33N 36°59' W 076°07'1110.9
2016-May-22 23:33N 36°56' W 076°20'3 3.2
2016-May-22 22:32N 36°53' W 076°21'0 0.0
2016-May-22 21:25N 36°53' W 076°21'0 0.0
2016-May-22 20:32N 36°53' W 076°21'0 0.0
2016-May-22 19:32N 36°53' W 076°21'0 0.0
2016-May-22 18:33N 36°53' W 076°21'0 0.0
2016-May-22 17:33N 36°53' W 076°21'0 0.0
2016-May-22 16:27N 36°53' W 076°21'0 0.0
2016-May-22 15:30N 36°53' W 076°21'0 0.0
2016-May-22 14:27N 36°53' W 076°21'0 0.0
2016-May-22 13:32N 36°53' W 076°21'0 0.0
2016-May-22 12:33N 36°53' W 076°21'0 0.0
2016-May-22 11:32N 36°53' W 076°21'0 0.0
2016-May-22 10:31N 36°53' W 076°21'0 0.0
2016-May-22 09:33N 36°53' W 076°21'0 0.0
2016-May-22 08:28N 36°53' W 076°21'0 0.0
2016-May-22 07:33N 36°53' W 076°21'0 0.0
2016-May-22 02:28N 36°53' W 076°21'0 0.0
2016-May-22 00:29N 36°53' W 076°21'0 0.0
2016-May-21 23:32N 36°53' W 076°21'0 0.0
2016-May-21 22:33N 36°53' W 076°21'15 7.3
2016-May-21 20:33N 36°58' W 076°04'9 8.6
2016-May-21 19:33N 37°06' W 076°07'9815.9
2016-May-21 13:25N 38°42' W 076°26'1416.5
2016-May-21 12:33N 38°56' W 076°23'1312.6
2016-May-21 11:33N 39°09' W 076°25'9 9.4
2016-May-21 10:33N 39°15' W 076°34'1 0.6
2016-May-21 09:28N 39°15' W 076°33'0 0.0
2016-May-21 08:29N 39°15' W 076°33'0 0.0
2016-May-21 07:31N 39°15' W 076°33'0 0.0
2016-May-21 06:32N 39°15' W 076°33'0 0.0
2016-May-21 05:32N 39°15' W 076°33'0 0.0
2016-May-21 04:26N 39°15' W 076°33'0 0.0
2016-May-21 03:33N 39°15' W 076°33'0 0.0
2016-May-21 02:31N 39°15' W 076°33'0 0.0
2016-May-21 01:33N 39°15' W 076°33'0 0.0
2016-May-21 00:29N 39°15' W 076°33'0 0.0
2016-May-20 23:32N 39°15' W 076°33'0 0.0
2016-May-20 22:30N 39°15' W 076°33'0 0.3
2016-May-20 21:34N 39°15' W 076°33'7 7.3
2016-May-20 20:34N 39°10' W 076°26'1312.6
2016-May-20 19:34N 38°58' W 076°24'4916.3
2016-May-20 16:33N 38°09' W 076°14'5015.8
2016-May-20 13:22N 37°19' W 076°05'1215.0
2016-May-20 12:33N 37°07' W 076°08'1414.2
2016-May-20 11:33N 36°56' W 075°57'1210.1
2016-May-20 10:24N 36°50' W 075°45'13715.5
2016-May-20 01:33N 38°41' W 074°05'1717.3
2016-May-20 00:33N 38°58' W 073°59'1717.1
2016-May-19 23:33N 39°15' W 073°55'1717.1
2016-May-19 22:33N 39°32' W 073°53'1716.9
2016-May-19 21:33N 39°49' W 073°52'1716.8
2016-May-19 20:33N 40°05' W 073°50'1616.3
2016-May-19 19:33N 40°22' W 073°49'1010.3
2016-May-19 18:33N 40°30' W 073°57'1111.3
2016-May-19 17:33N 40°39' W 074°06'3 3.5
2016-May-19 16:33N 40°41' W 074°09'0 0.0
2016-May-19 15:30N 40°41' W 074°09'0 0.0
2016-May-19 14:27N 40°41' W 074°09'0 0.0
2016-May-19 13:31N 40°41' W 074°09'0 0.0
2016-May-19 12:29N 40°41' W 074°09'0 0.0
2016-May-19 11:34N 40°41' W 074°09'0 0.0
2016-May-19 10:28N 40°41' W 074°09'0 0.0
2016-May-19 09:32N 40°41' W 074°09'0 0.0
2016-May-19 08:34N 40°41' W 074°09'0 0.0
2016-May-19 07:33N 40°41' W 074°09'0 0.0
2016-May-19 06:34N 40°41' W 074°09'0 0.2
2016-May-19 05:33N 40°41' W 074°09'0 0.0
2016-May-19 04:34N 40°41' W 074°09'0 0.0
2016-May-19 03:31N 40°41' W 074°09'0 0.0
2016-May-19 02:32N 40°41' W 074°09'0 0.0
2016-May-19 01:29N 40°41' W 074°09'0 0.0
2016-May-19 00:33N 40°41' W 074°09'0 0.0
2016-May-18 23:31N 40°41' W 074°09'0 0.0
2016-May-18 22:33N 40°41' W 074°09'0 0.0
2016-May-18 21:31N 40°41' W 074°09'0 0.0
2016-May-18 20:34N 40°41' W 074°09'0 0.0
2016-May-18 19:25N 40°41' W 074°09'0 0.0
2016-May-18 18:27N 40°41' W 074°09'0 0.0
2016-May-18 17:30N 40°41' W 074°09'0 0.0
2016-May-18 16:33N 40°41' W 074°09'0 0.4
2016-May-18 15:33N 40°41' W 074°09'4 4.4
2016-May-18 14:33N 40°39' W 074°04'9 9.2
2016-May-18 13:33N 40°31' W 073°58'2512.0
2016-May-18 11:26N 40°18' W 073°29'1 1.0
2016-May-18 10:33N 40°18' W 073°30'  
Track history (hours):
 
Tides and Currents Weather Stations Pressure Air Temp Water Temp Dewpoint Dewpoint Depression Visibility Wind Speed Wind Dir Waves Ship Positions

Zim Mumbai

Last reported at 2016-May-23 02:07 UTC. Time now 2016-May-24 06:06 UTC.
Position N 36°49' W 075°46'.

Length 195.7 m; beam 32.3 m; draft 11.5 m.

Type: Ship (hazmat cat B). MMSI: 212160000.

Date/timePositionNaut miles runAvg speedWind from/ knotsBaromVisibWave heightAir tempDewpointWater temp
2016-May-23 02:07N 36°49' W 075°46'813.3
2016-May-23 01:33N 36°53' W 075°54'1211.7
2016-May-23 00:33N 36°59' W 076°07'1110.9
2016-May-22 23:33N 36°56' W 076°20'3 3.2
2016-May-22 22:32N 36°53' W 076°21'0 0.0
2016-May-22 21:25N 36°53' W 076°21'0 0.0
2016-May-22 20:32N 36°53' W 076°21'0 0.0
2016-May-22 19:32N 36°53' W 076°21'0 0.0
2016-May-22 18:33N 36°53' W 076°21'0 0.0
2016-May-22 17:33N 36°53' W 076°21'0 0.0
2016-May-22 16:27N 36°53' W 076°21'0 0.0
2016-May-22 15:30N 36°53' W 076°21'0 0.0
2016-May-22 14:27N 36°53' W 076°21'0 0.0
2016-May-22 13:32N 36°53' W 076°21'0 0.0
2016-May-22 12:33N 36°53' W 076°21'0 0.0
2016-May-22 11:32N 36°53' W 076°21'0 0.0
2016-May-22 10:31N 36°53' W 076°21'0 0.0
2016-May-22 09:33N 36°53' W 076°21'0 0.0
2016-May-22 08:28N 36°53' W 076°21'0 0.0
2016-May-22 07:33N 36°53' W 076°21'0 0.0
2016-May-22 02:28N 36°53' W 076°21'0 0.0
2016-May-22 00:29N 36°53' W 076°21'0 0.0
2016-May-21 23:32N 36°53' W 076°21'0 0.0
2016-May-21 22:33N 36°53' W 076°21'15 7.3
2016-May-21 20:33N 36°58' W 076°04'9 8.6
2016-May-21 19:33N 37°06' W 076°07'9815.9
2016-May-21 13:25N 38°42' W 076°26'1416.5
2016-May-21 12:33N 38°56' W 076°23'1312.6
2016-May-21 11:33N 39°09' W 076°25'9 9.4
2016-May-21 10:33N 39°15' W 076°34'1 0.6
2016-May-21 09:28N 39°15' W 076°33'0 0.0
2016-May-21 08:29N 39°15' W 076°33'0 0.0
2016-May-21 07:31N 39°15' W 076°33'0 0.0
2016-May-21 06:32N 39°15' W 076°33'0 0.0
2016-May-21 05:32N 39°15' W 076°33'0 0.0
2016-May-21 04:26N 39°15' W 076°33'0 0.0
2016-May-21 03:33N 39°15' W 076°33'0 0.0
2016-May-21 02:31N 39°15' W 076°33'0 0.0
2016-May-21 01:33N 39°15' W 076°33'0 0.0
2016-May-21 00:29N 39°15' W 076°33'0 0.0
2016-May-20 23:32N 39°15' W 076°33'0 0.0
2016-May-20 22:30N 39°15' W 076°33'0 0.3
2016-May-20 21:34N 39°15' W 076°33'7 7.3
2016-May-20 20:34N 39°10' W 076°26'1312.6
2016-May-20 19:34N 38°58' W 076°24'4916.3
2016-May-20 16:33N 38°09' W 076°14'5015.8
2016-May-20 13:22N 37°19' W 076°05'1215.0
2016-May-20 12:33N 37°07' W 076°08'1414.2
2016-May-20 11:33N 36°56' W 075°57'1210.1
2016-May-20 10:24N 36°50' W 075°45'13715.5
2016-May-20 01:33N 38°41' W 074°05'1717.3
2016-May-20 00:33N 38°58' W 073°59'1717.1
2016-May-19 23:33N 39°15' W 073°55'1717.1
2016-May-19 22:33N 39°32' W 073°53'1716.9
2016-May-19 21:33N 39°49' W 073°52'1716.8
2016-May-19 20:33N 40°05' W 073°50'1616.3
2016-May-19 19:33N 40°22' W 073°49'1010.3
2016-May-19 18:33N 40°30' W 073°57'1111.3
2016-May-19 17:33N 40°39' W 074°06'3 3.5
2016-May-19 16:33N 40°41' W 074°09'0 0.0
2016-May-19 15:30N 40°41' W 074°09'0 0.0
2016-May-19 14:27N 40°41' W 074°09'0 0.0
2016-May-19 13:31N 40°41' W 074°09'0 0.0
2016-May-19 12:29N 40°41' W 074°09'0 0.0
2016-May-19 11:34N 40°41' W 074°09'0 0.0
2016-May-19 10:28N 40°41' W 074°09'0 0.0
2016-May-19 09:32N 40°41' W 074°09'0 0.0
2016-May-19 08:34N 40°41' W 074°09'0 0.0
2016-May-19 07:33N 40°41' W 074°09'0 0.0
2016-May-19 06:34N 40°41' W 074°09'0 0.2
2016-May-19 05:33N 40°41' W 074°09'0 0.0
2016-May-19 04:34N 40°41' W 074°09'0 0.0
2016-May-19 03:31N 40°41' W 074°09'0 0.0
2016-May-19 02:32N 40°41' W 074°09'0 0.0
2016-May-19 01:29N 40°41' W 074°09'0 0.0
2016-May-19 00:33N 40°41' W 074°09'0 0.0
2016-May-18 23:31N 40°41' W 074°09'0 0.0
2016-May-18 22:33N 40°41' W 074°09'0 0.0
2016-May-18 21:31N 40°41' W 074°09'0 0.0
2016-May-18 20:34N 40°41' W 074°09'0 0.0
2016-May-18 19:25N 40°41' W 074°09'0 0.0
2016-May-18 18:27N 40°41' W 074°09'0 0.0
2016-May-18 17:30N 40°41' W 074°09'0 0.0
2016-May-18 16:33N 40°41' W 074°09'0 0.4
2016-May-18 15:33N 40°41' W 074°09'4 4.4
2016-May-18 14:33N 40°39' W 074°04'9 9.2
2016-May-18 13:33N 40°31' W 073°58'2512.0
2016-May-18 11:26N 40°18' W 073°29'1 1.0
2016-May-18 10:33N 40°18' W 073°30'  

Dump ship's entire track history